Terminal Aerodrome Forecast
Issued by NWS La Crosse, WI

Home | Current Version | Previous Version | Text Only | Print | Product List | Glossary On
Versions: 1 2 3 4 5 6 7 8 9 10 11 12
000
FTUS43 KARX 240524
TAFLSE
TAF
KLSE 240524Z 2406/2506 17011KT P6SM SCT250 WS016/23046KT
     FM241500 20013KT P6SM SCT120
     FM242100 28013KT P6SM BKN100
     FM250000 30012G20KT P6SM SKC=

USA.gov is the U.S. government's official web portal to all federal, state and local government web resources and services.